Time;durP1;ratioP1;P1;durP2;ratioP2;P2;SDS_P1;SDS_P2;PMS_P1;PMS_P2;Temp;Humidity;BMP_temperature;BMP_pressure;BME280_temperature;BME280_humidity;BME280_pressure;Samples;Min_cycle;Max_cycle;Signal;HPM_P1;HPM_P2
2022/06/07 00:00:55;;;;;;;10.85;4.35;;;;;;;15.38;100.00;100974.38;5044496;28;20067;-72
2022/06/07 00:03:22;;;;;;;11.68;4.70;;;;;;;15.34;100.00;100965.25;5028156;28;20080;-72
2022/06/07 00:05:48;;;;;;;11.27;4.70;;;;;;;15.42;100.00;100966.75;5039453;28;20084;-75
2022/06/07 00:08:18;;;;;;;14.75;5.82;;;;;;;15.48;100.00;100963.47;5038997;28;20083;-72
2022/06/07 00:10:45;;;;;;;12.43;4.70;;;;;;;15.52;100.00;100969.78;5036849;28;20458;-74
2022/06/07 00:13:12;;;;;;;7.40;3.03;;;;;;;15.56;100.00;100967.72;5050506;28;20049;-73
2022/06/07 00:15:41;;;;;;;10.90;4.93;;;;;;;15.55;100.00;100960.56;5036726;28;20156;-72
2022/06/07 00:18:08;;;;;;;13.45;5.28;;;;;;;15.49;100.00;100961.03;5030547;28;20152;-75
2022/06/07 00:20:36;;;;;;;13.77;5.10;;;;;;;15.45;100.00;100965.09;5037724;28;20049;-72
2022/06/07 00:23:08;;;;;;;11.35;4.55;;;;;;;15.38;100.00;100957.66;5037547;28;20144;-72
2022/06/07 00:25:36;;;;;;;14.90;5.88;;;;;;;15.32;100.00;100953.72;5028760;28;20155;-73
2022/06/07 00:28:03;;;;;;;15.10;5.93;;;;;;;15.33;100.00;100960.13;5032868;28;20428;-71
2022/06/07 00:30:30;;;;;;;15.68;6.95;;;;;;;15.31;100.00;100948.59;5035966;28;20065;-72
2022/06/07 00:32:58;;;;;;;17.05;7.68;;;;;;;15.28;100.00;100955.00;5033067;28;20532;-75
2022/06/07 00:35:25;;;;;;;17.50;7.68;;;;;;;15.28;100.00;100949.44;5026088;28;20141;-71
2022/06/07 00:37:52;;;;;;;16.85;7.72;;;;;;;15.26;100.00;100949.84;5029733;28;20163;-73
2022/06/07 00:40:19;;;;;;;13.38;5.50;;;;;;;15.27;100.00;100951.44;5034233;28;20057;-73
2022/06/07 00:42:46;;;;;;;9.65;3.38;;;;;;;15.27;100.00;100939.50;5033018;28;20058;-73
2022/06/07 00:45:17;;;;;;;7.65;3.55;;;;;;;15.24;100.00;100943.13;5043689;28;20073;-73
2022/06/07 00:47:44;;;;;;;9.18;3.92;;;;;;;15.23;100.00;100942.31;5041154;28;20143;-75
2022/06/07 00:50:18;;;;;;;8.77;3.72;;;;;;;15.19;100.00;100938.03;5033232;28;20077;-74
2022/06/07 00:52:45;;;;;;;13.27;4.17;;;;;;;15.15;100.00;100935.31;5039461;28;20417;-72
2022/06/07 00:55:12;;;;;;;7.47;3.47;;;;;;;15.11;100.00;100931.78;5039350;28;20136;-74
2022/06/07 00:57:38;;;;;;;9.30;4.00;;;;;;;15.08;100.00;100924.28;5040814;28;20516;-73
2022/06/07 01:00:08;;;;;;;10.43;3.97;;;;;;;15.06;100.00;100928.69;5036322;28;20040;-73
2022/06/07 01:02:34;;;;;;;11.70;4.53;;;;;;;15.05;100.00;100939.03;5040223;28;20441;-72
2022/06/07 01:05:02;;;;;;;8.82;4.00;;;;;;;15.01;100.00;100927.19;5043638;28;20497;-70
2022/06/07 01:13:27;;;;;;;11.98;5.13;;;;;;;14.86;100.00;100920.25;5043571;28;20056;-73
2022/06/07 01:16:02;;;;;;;12.65;5.10;;;;;;;14.86;100.00;100925.03;5036058;28;20041;-78
2022/06/07 01:18:31;;;;;;;11.13;4.75;;;;;;;14.80;100.00;100924.72;5036074;28;20042;-73
2022/06/07 01:21:14;;;;;;;13.68;5.70;;;;;;;14.76;100.00;100925.97;5033602;28;20413;-73
2022/06/07 01:23:42;;;;;;;16.77;7.03;;;;;;;14.74;100.00;100917.25;5032383;28;20588;-72
2022/06/07 01:26:11;;;;;;;19.77;8.13;;;;;;;14.70;100.00;100917.31;5029530;28;20103;-75
2022/06/07 01:28:41;;;;;;;19.25;9.10;;;;;;;14.62;100.00;100913.03;5039983;28;20053;-72
2022/06/07 01:31:25;;;;;;;19.80;9.48;;;;;;;14.58;100.00;100911.53;5038509;28;20048;-75
2022/06/07 01:34:12;;;;;;;22.75;9.98;;;;;;;14.52;100.00;100896.50;5036983;28;20425;-74
2022/06/07 01:36:50;;;;;;;19.55;8.25;;;;;;;14.59;100.00;100905.53;5038764;28;20049;-72
2022/06/07 01:42:02;;;;;;;22.98;11.07;;;;;;;14.55;100.00;100912.38;5042409;28;20059;-72
2022/06/07 01:44:39;;;;;;;26.65;12.60;;;;;;;14.52;100.00;100908.41;5037330;28;20139;-74
2022/06/07 01:47:09;;;;;;;22.10;12.25;;;;;;;14.50;100.00;100910.84;5034328;28;20120;-73
2022/06/07 01:49:36;;;;;;;24.63;11.75;;;;;;;14.48;100.00;100902.09;5039754;28;20044;-72
2022/06/07 01:52:04;;;;;;;23.80;10.98;;;;;;;14.49;100.00;100906.47;5043197;28;20622;-74
2022/06/07 01:54:31;;;;;;;24.23;11.98;;;;;;;14.44;100.00;100895.81;5041606;28;20053;-73
2022/06/07 01:56:58;;;;;;;27.00;12.05;;;;;;;14.42;100.00;100894.66;5035187;28;20795;-73
2022/06/07 01:59:25;;;;;;;24.90;13.00;;;;;;;14.32;100.00;100892.81;5034172;28;20156;-72
2022/06/07 02:01:52;;;;;;;25.45;13.27;;;;;;;14.25;100.00;100896.47;5038290;28;20056;-72
2022/06/07 02:04:22;;;;;;;24.25;12.95;;;;;;;14.16;100.00;100885.03;5028881;28;20061;-74
2022/06/07 02:06:52;;;;;;;26.98;12.48;;;;;;;14.13;100.00;100888.63;5042901;28;20055;-73
2022/06/07 02:09:19;;;;;;;27.48;12.35;;;;;;;14.05;100.00;100889.16;5038980;28;20088;-73
2022/06/07 02:11:46;;;;;;;23.27;11.38;;;;;;;13.99;100.00;100876.91;5050136;28;20058;-71
2022/06/07 02:14:13;;;;;;;24.98;13.00;;;;;;;13.95;100.00;100878.94;5033657;28;20570;-72
2022/06/07 02:16:40;;;;;;;25.83;13.43;;;;;;;13.95;100.00;100876.16;5030855;28;20128;-72
2022/06/07 02:19:07;;;;;;;26.23;13.43;;;;;;;13.93;100.00;100873.78;5028954;28;20056;-72
2022/06/07 02:21:35;;;;;;;24.83;13.48;;;;;;;13.88;100.00;100874.25;5040909;28;20056;-72
2022/06/07 02:24:04;;;;;;;24.50;13.73;;;;;;;13.91;100.00;100869.84;5027394;28;20524;-73
2022/06/07 02:26:55;;;;;;;26.17;12.95;;;;;;;13.92;100.00;100875.00;5041565;28;20119;-72
2022/06/07 02:29:32;;;;;;;26.45;13.07;;;;;;;13.91;100.00;100865.06;5038158;28;20053;-74
2022/06/07 02:32:04;;;;;;;22.05;11.48;;;;;;;13.87;100.00;100866.34;5041089;28;20043;-74
2022/06/07 02:34:32;;;;;;;25.30;12.15;;;;;;;13.87;100.00;100874.69;5041430;28;20075;-73
2022/06/07 02:37:05;;;;;;;23.60;11.88;;;;;;;13.83;100.00;100869.16;5044331;28;20051;-71
2022/06/07 02:39:32;;;;;;;21.85;11.88;;;;;;;13.85;100.00;100869.53;5046882;28;20053;-72
2022/06/07 02:42:01;;;;;;;23.23;10.50;;;;;;;13.82;100.00;100872.34;5029007;28;20053;-70
2022/06/07 02:44:27;;;;;;;23.65;11.88;;;;;;;13.83;100.00;100862.78;5039880;28;20523;-73
2022/06/07 02:46:54;;;;;;;24.52;12.45;;;;;;;13.85;100.00;100868.72;5033065;28;20048;-73
2022/06/07 02:49:20;;;;;;;21.67;11.02;;;;;;;13.83;100.00;100865.56;5040418;28;20052;-71
2022/06/07 02:51:47;;;;;;;22.67;11.15;;;;;;;13.79;100.00;100862.84;5041289;28;20470;-73
2022/06/07 02:54:33;;;;;;;21.92;11.98;;;;;;;13.80;100.00;100864.41;5042454;28;20102;-71
2022/06/07 02:57:00;;;;;;;20.13;11.52;;;;;;;13.78;100.00;100866.84;5030427;28;20051;-72
2022/06/07 02:59:26;;;;;;;25.65;12.07;;;;;;;13.77;100.00;100861.69;5032278;28;20065;-72
2022/06/07 03:01:53;;;;;;;23.38;11.70;;;;;;;13.76;100.00;100860.88;5037218;28;20183;-72
2022/06/07 03:04:19;;;;;;;24.48;12.73;;;;;;;13.78;100.00;100861.28;5041519;28;20044;-74
2022/06/07 03:06:46;;;;;;;23.73;12.30;;;;;;;13.77;100.00;100865.22;5037596;28;20049;-71
2022/06/07 03:09:13;;;;;;;21.13;11.10;;;;;;;13.78;100.00;100863.25;5035961;28;20322;-73
2022/06/07 03:11:39;;;;;;;24.15;9.95;;;;;;;13.81;100.00;100868.78;5051223;28;20155;-72
2022/06/07 03:14:06;;;;;;;23.90;11.45;;;;;;;13.87;100.00;100866.34;5034253;28;20057;-72
2022/06/07 03:16:33;;;;;;;22.52;10.43;;;;;;;13.83;100.00;100869.16;5029078;28;20069;-71
2022/06/07 03:19:00;;;;;;;21.23;9.43;;;;;;;13.86;100.00;100865.53;5033772;28;20048;-74
2022/06/07 03:21:28;;;;;;;18.85;10.25;;;;;;;13.92;100.00;100860.28;5042848;28;20083;-71
2022/06/07 03:23:55;;;;;;;18.77;9.48;;;;;;;13.92;100.00;100872.22;5029384;28;20053;-72
2022/06/07 03:26:22;;;;;;;22.58;9.90;;;;;;;13.96;100.00;100872.16;5026719;28;20441;-73
2022/06/07 03:28:49;;;;;;;24.35;10.23;;;;;;;14.00;100.00;100861.81;5039005;28;20064;-75
2022/06/07 03:31:18;;;;;;;19.30;9.38;;;;;;;14.04;100.00;100866.09;5042392;28;20049;-74
2022/06/07 03:33:46;;;;;;;21.88;9.15;;;;;;;14.07;100.00;100867.28;5036551;28;20107;-72
2022/06/07 03:36:17;;;;;;;16.58;7.68;;;;;;;14.05;100.00;100864.91;5027891;28;20056;-73
2022/06/07 03:38:44;;;;;;;16.25;8.25;;;;;;;14.14;100.00;100867.19;5032218;28;20119;-73
2022/06/07 03:41:22;;;;;;;16.55;8.18;;;;;;;14.15;100.00;100866.75;5037409;28;20140;-72
2022/06/07 03:43:50;;;;;;;17.25;7.47;;;;;;;14.16;100.00;100864.75;5041962;28;20088;-75
2022/06/07 03:46:21;;;;;;;17.95;6.82;;;;;;;14.23;100.00;100868.25;5045095;28;20052;-72
2022/06/07 03:48:48;;;;;;;14.65;5.70;;;;;;;14.25;100.00;100870.63;5036992;28;20144;-73
2022/06/07 03:51:18;;;;;;;11.68;5.68;;;;;;;14.26;100.00;100875.78;5040810;28;20145;-73
2022/06/07 03:53:45;;;;;;;12.82;6.45;;;;;;;14.35;100.00;100867.69;5032968;28;20090;-76
2022/06/07 03:56:14;;;;;;;10.10;4.95;;;;;;;14.29;100.00;100868.59;5028876;28;20081;-71
2022/06/07 03:58:40;;;;;;;13.80;5.63;;;;;;;14.33;100.00;100870.13;5026563;28;20460;-71
2022/06/07 04:01:09;;;;;;;15.57;5.78;;;;;;;14.35;100.00;100873.25;5040089;28;20041;-72
2022/06/07 04:03:42;;;;;;;9.48;3.95;;;;;;;14.34;100.00;100870.91;5034838;28;20434;-72
2022/06/07 04:06:26;;;;;;;4.03;2.63;;;;;;;14.37;100.00;100878.41;5040633;28;20044;-72
2022/06/07 04:08:53;;;;;;;15.23;5.80;;;;;;;14.41;100.00;100871.59;5038787;28;20045;-73
2022/06/07 04:11:22;;;;;;;11.35;4.03;;;;;;;14.40;100.00;100880.34;5038987;28;20464;-72
2022/06/07 04:13:50;;;;;;;4.45;2.20;;;;;;;14.44;100.00;100887.44;5037990;28;20099;-74
2022/06/07 04:16:19;;;;;;;11.23;5.28;;;;;;;14.55;100.00;100879.72;5033970;28;20059;-74
2022/06/07 04:18:46;;;;;;;9.95;3.20;;;;;;;14.48;100.00;100882.63;5027711;28;20049;-74
2022/06/07 04:21:14;;;;;;;7.88;3.42;;;;;;;14.54;100.00;100875.38;5044852;28;20052;-72
2022/06/07 04:23:42;;;;;;;11.50;4.80;;;;;;;14.63;100.00;100884.00;5039344;28;20136;-74
2022/06/07 04:26:19;;;;;;;1.90;1.25;;;;;;;14.58;100.00;100890.03;5034351;28;20044;-73
2022/06/07 04:28:46;;;;;;;4.00;2.00;;;;;;;14.61;100.00;100883.63;5043591;28;20049;-74
2022/06/07 04:31:16;;;;;;;7.05;3.47;;;;;;;14.76;100.00;100885.00;5047406;28;20128;-75
2022/06/07 04:33:44;;;;;;;5.90;2.15;;;;;;;14.76;100.00;100889.78;5043698;28;20045;-72
2022/06/07 04:36:20;;;;;;;3.72;2.28;;;;;;;14.76;100.00;100887.78;5026773;28;20061;-72
2022/06/07 04:38:49;;;;;;;3.10;1.67;;;;;;;14.80;100.00;100885.72;5026074;28;20084;-72
2022/06/07 04:41:18;;;;;;;4.15;2.85;;;;;;;14.86;100.00;100886.81;5035172;28;20179;-73
2022/06/07 04:43:51;;;;;;;6.05;2.72;;;;;;;14.88;100.00;100892.75;5039457;28;20136;-70
2022/06/07 04:46:19;;;;;;;12.82;4.13;;;;;;;15.07;100.00;100889.25;5043124;28;20571;-72
2022/06/07 04:48:47;;;;;;;7.90;2.78;;;;;;;15.05;100.00;100890.88;5046982;28;20075;-76
2022/06/07 04:51:20;;;;;;;10.93;2.47;;;;;;;15.05;100.00;100890.88;5047347;28;20056;-74
2022/06/07 04:53:48;;;;;;;5.43;2.40;;;;;;;15.07;100.00;100902.41;5034523;28;20052;-73
2022/06/07 04:56:21;;;;;;;5.28;2.08;;;;;;;15.10;100.00;100884.84;5046995;28;20510;-72
2022/06/07 04:58:51;;;;;;;7.28;2.83;;;;;;;15.20;100.00;100889.44;5047768;28;20118;-73
2022/06/07 05:01:20;;;;;;;13.48;4.45;;;;;;;15.27;100.00;100892.91;5041512;28;20040;-72
2022/06/07 05:03:48;;;;;;;6.32;2.60;;;;;;;15.23;100.00;100886.56;5046608;28;20108;-72
2022/06/07 05:06:28;;;;;;;6.65;2.35;;;;;;;15.25;100.00;100886.94;5043638;28;20399;-75
2022/06/07 05:09:01;;;;;;;3.75;1.95;;;;;;;15.25;100.00;100892.53;5037694;28;20053;-73
2022/06/07 05:11:28;;;;;;;9.75;3.40;;;;;;;15.36;100.00;100892.38;5038658;28;20045;-73
2022/06/07 05:13:56;;;;;;;3.00;1.77;;;;;;;15.33;100.00;100899.53;5042119;28;20834;-76
2022/06/07 05:16:23;;;;;;;5.03;2.97;;;;;;;15.44;100.00;100899.41;5035837;28;20097;-76
2022/06/07 05:18:52;;;;;;;11.50;3.80;;;;;;;15.50;100.00;100901.25;5035558;28;20052;-73
2022/06/07 05:21:20;;;;;;;3.67;1.77;;;;;;;15.45;100.00;100896.19;5045122;28;20060;-74
2022/06/07 05:23:46;;;;;;;4.88;2.55;;;;;;;15.44;100.00;100897.41;5037257;28;20136;-74
2022/06/07 05:26:27;;;;;;;7.28;2.70;;;;;;;15.38;100.00;100895.50;5038464;28;20574;-74
2022/06/07 05:28:54;;;;;;;11.05;2.60;;;;;;;15.56;100.00;100896.00;5038112;28;20084;-73
2022/06/07 05:31:21;;;;;;;4.63;2.70;;;;;;;15.48;100.00;100898.13;5038964;28;20151;-73
2022/06/07 05:33:49;;;;;;;6.35;1.80;;;;;;;15.60;100.00;100898.72;5044925;28;20042;-73
2022/06/07 05:36:15;;;;;;;7.45;2.13;;;;;;;15.60;100.00;100893.13;5028775;28;20076;-75
2022/06/07 05:38:46;;;;;;;9.65;3.50;;;;;;;15.70;100.00;100898.53;5046638;28;20113;-73
2022/06/07 05:41:21;;;;;;;9.07;3.83;;;;;;;15.79;100.00;100903.53;5044868;28;20571;-73
2022/06/07 05:43:48;;;;;;;10.60;3.35;;;;;;;15.77;100.00;100900.38;5040880;28;20055;-76
2022/06/07 05:46:16;;;;;;;9.43;3.60;;;;;;;15.87;100.00;100904.97;5057790;28;20687;-77
2022/06/07 05:48:43;;;;;;;13.45;3.03;;;;;;;15.82;100.00;100906.25;5034377;28;20413;-74
2022/06/07 05:51:10;;;;;;;6.53;1.58;;;;;;;15.76;100.00;100909.97;5046715;28;20155;-72
2022/06/07 05:53:37;;;;;;;4.78;1.70;;;;;;;15.75;100.00;100911.97;5045805;28;20060;-74
2022/06/07 05:56:10;;;;;;;8.02;3.08;;;;;;;15.76;100.00;100921.13;5044228;28;20605;-75
2022/06/07 05:58:37;;;;;;;9.38;2.42;;;;;;;15.80;100.00;100913.47;5036456;28;20128;-73
2022/06/07 06:01:06;;;;;;;5.70;2.22;;;;;;;15.87;100.00;100905.75;5047183;28;20091;-75
2022/06/07 06:03:35;;;;;;;5.22;2.45;;;;;;;15.81;100.00;100912.25;5044382;28;20055;-73
2022/06/07 06:06:03;;;;;;;4.10;2.00;;;;;;;15.91;100.00;100905.66;5037148;28;20107;-75
2022/06/07 06:11:17;;;;;;;16.20;3.60;;;;;;;15.92;100.00;100918.41;5040808;28;20136;-73
2022/06/07 06:13:44;;;;;;;6.53;2.55;;;;;;;16.15;100.00;100916.34;5033373;28;20068;-73
2022/06/07 06:16:18;;;;;;;12.05;2.95;;;;;;;16.14;99.38;100916.78;5033154;28;20114;-73
2022/06/07 06:18:46;;;;;;;11.20;3.53;;;;;;;16.40;99.78;100916.59;5037065;28;20053;-73
2022/06/07 06:21:13;;;;;;;4.78;2.05;;;;;;;16.48;97.66;100908.88;5039078;28;20128;-73
2022/06/07 06:23:43;;;;;;;12.40;2.72;;;;;;;16.52;96.24;100912.38;5041491;28;20060;-74
2022/06/07 06:26:13;;;;;;;6.30;2.58;;;;;;;16.61;97.01;100916.16;5038959;28;20745;-73
2022/06/07 06:28:41;;;;;;;9.43;3.13;;;;;;;16.70;96.49;100924.72;5033582;28;20049;-74
2022/06/07 06:31:11;;;;;;;8.38;2.70;;;;;;;16.68;95.33;100915.22;5045645;28;20045;-75
2022/06/07 06:33:41;;;;;;;6.57;2.13;;;;;;;16.71;94.27;100917.91;5040785;28;20049;-70
2022/06/07 06:36:10;;;;;;;5.53;2.00;;;;;;;16.84;95.42;100912.47;5041567;28;20048;-71
2022/06/07 06:38:37;;;;;;;8.82;3.10;;;;;;;16.76;94.26;100922.19;5036742;28;20059;-70
2022/06/07 06:41:17;;;;;;;3.38;1.90;;;;;;;16.79;94.76;100910.16;5036280;28;20045;-70
2022/06/07 06:43:44;;;;;;;5.07;1.88;;;;;;;16.75;95.11;100917.84;5037633;28;20059;-71
2022/06/07 06:46:14;;;;;;;9.90;3.40;;;;;;;16.86;95.61;100907.19;5027234;28;20510;-72
2022/06/07 06:48:43;;;;;;;3.20;1.35;;;;;;;16.76;95.30;100922.19;5038723;28;20048;-73
2022/06/07 06:51:12;;;;;;;5.53;1.85;;;;;;;16.89;96.03;100918.31;5039874;28;20136;-74
2022/06/07 06:53:44;;;;;;;7.38;2.58;;;;;;;17.00;94.94;100909.66;5037346;28;20149;-74
2022/06/07 06:56:13;;;;;;;14.98;4.35;;;;;;;17.03;94.15;100909.56;5044472;28;20053;-72
2022/06/07 06:58:40;;;;;;;4.82;2.15;;;;;;;17.12;93.61;100914.56;5038444;28;21673;-73
2022/06/07 07:01:14;;;;;;;6.60;2.28;;;;;;;17.35;95.49;100911.59;5042419;28;20080;-74
2022/06/07 07:03:42;;;;;;;11.48;3.75;;;;;;;17.32;93.28;100918.81;5043264;28;20140;-72
2022/06/07 07:06:11;;;;;;;10.10;3.80;;;;;;;17.40;92.11;100911.84;5042793;28;20532;-72
2022/06/07 07:08:40;;;;;;;14.68;4.15;;;;;;;17.61;94.19;100902.91;5037928;28;20466;-71
2022/06/07 07:11:12;;;;;;;11.52;3.35;;;;;;;17.60;91.31;100920.13;5041813;28;20050;-72
2022/06/07 07:13:39;;;;;;;13.07;3.55;;;;;;;17.62;90.54;100906.50;5042802;28;20140;-74
2022/06/07 07:16:08;;;;;;;4.07;2.13;;;;;;;17.63;91.81;100908.06;5039364;28;20085;-71
2022/06/07 07:18:35;;;;;;;7.40;2.80;;;;;;;17.83;92.39;100905.91;5032407;28;20046;-72
2022/06/07 07:21:04;;;;;;;4.05;1.67;;;;;;;17.84;91.87;100904.69;5037477;28;20076;-72
2022/06/07 07:23:31;;;;;;;12.05;3.50;;;;;;;17.90;91.41;100908.53;5034437;28;20059;-73
2022/06/07 07:26:08;;;;;;;3.55;1.85;;;;;;;17.88;90.92;100908.16;5035123;28;20144;-72
2022/06/07 07:28:37;;;;;;;5.45;2.45;;;;;;;17.96;90.85;100917.94;5034778;28;20124;-73
2022/06/07 07:31:06;;;;;;;9.30;2.55;;;;;;;17.93;90.44;100910.44;5039700;28;20053;-73
2022/06/07 07:33:34;;;;;;;8.93;2.95;;;;;;;18.15;90.40;100910.63;5031601;28;20053;-74
2022/06/07 07:36:02;;;;;;;6.63;2.45;;;;;;;18.22;89.57;100916.00;5032040;28;20489;-69
2022/06/07 07:38:29;;;;;;;9.10;3.33;;;;;;;18.47;89.52;100905.66;5042034;28;20049;-70
2022/06/07 07:40:55;;;;;;;8.52;2.35;;;;;;;18.32;88.85;100909.31;5032574;28;20297;-75
2022/06/07 07:43:22;;;;;;;11.10;3.92;;;;;;;18.71;91.14;100911.72;5040008;28;20140;-73
2022/06/07 07:45:53;;;;;;;6.53;2.22;;;;;;;18.76;88.16;100911.94;5034812;28;20057;-72
2022/06/07 07:48:21;;;;;;;10.90;4.35;;;;;;;18.93;88.90;100910.59;5037601;28;20051;-71
2022/06/07 07:50:48;;;;;;;13.27;5.60;;;;;;;19.06;87.87;100900.16;5037072;28;20056;-72
2022/06/07 07:53:15;;;;;;;3.15;1.73;;;;;;;18.96;86.77;100895.69;5032257;28;20049;-71
2022/06/07 07:55:46;;;;;;;12.77;4.57;;;;;;;19.12;86.47;100903.97;5038094;28;20144;-72
2022/06/07 07:58:14;;;;;;;7.75;2.53;;;;;;;18.90;86.44;100910.72;5045282;28;20100;-71
2022/06/07 08:00:45;;;;;;;9.25;3.53;;;;;;;18.76;87.22;100909.16;5033843;28;20160;-71
2022/06/07 08:03:13;;;;;;;9.68;3.35;;;;;;;18.93;86.93;100905.00;5032481;28;20413;-73
2022/06/07 08:05:40;;;;;;;7.18;2.17;;;;;;;18.91;85.60;100906.69;5027090;28;20060;-71
2022/06/07 08:08:08;;;;;;;17.92;5.18;;;;;;;19.15;85.05;100902.28;5031238;28;20049;-73
2022/06/07 08:10:34;;;;;;;9.98;4.22;;;;;;;19.17;85.43;100909.00;5038943;28;20053;-71
2022/06/07 08:13:01;;;;;;;5.50;2.33;;;;;;;18.89;84.18;100911.94;5045210;28;20532;-72
2022/06/07 08:15:31;;;;;;;6.00;2.25;;;;;;;18.90;84.19;100905.13;5037504;28;20132;-74
2022/06/07 08:17:58;;;;;;;10.90;3.33;;;;;;;19.01;83.55;100889.53;5027197;28;20053;-72
2022/06/07 08:20:24;;;;;;;6.43;2.58;;;;;;;19.14;83.62;100901.50;5030200;28;20466;-72
2022/06/07 08:22:51;;;;;;;14.88;4.80;;;;;;;19.32;81.59;100904.53;5044771;28;20495;-72
2022/06/07 08:25:18;;;;;;;3.80;1.80;;;;;;;19.34;79.76;100906.88;5044869;28;20581;-73
2022/06/07 08:27:44;;;;;;;5.00;1.98;;;;;;;19.37;78.78;100900.38;5046850;28;20041;-74
2022/06/07 08:30:11;;;;;;;12.65;3.40;;;;;;;19.63;78.36;100896.22;5045248;28;20497;-73
2022/06/07 08:32:38;;;;;;;6.35;2.20;;;;;;;19.48;74.52;100890.31;5042139;28;20053;-73
2022/06/07 08:37:50;;;;;;;9.57;2.85;;;;;;;20.00;74.55;100896.06;5038475;28;20057;-72
2022/06/07 08:40:23;;;;;;;1.83;1.15;;;;;;;20.07;72.75;100897.81;5029745;28;20092;-73
2022/06/07 08:42:56;;;;;;;4.43;1.65;;;;;;;20.08;68.39;100877.72;5033037;28;20399;-72
2022/06/07 08:45:40;;;;;;;6.55;2.33;;;;;;;20.01;65.50;100892.03;5037352;28;20715;-74
2022/06/07 08:48:22;;;;;;;4.20;1.92;;;;;;;19.93;65.29;100887.91;5043779;28;20049;-72
2022/06/07 08:51:05;;;;;;;6.50;2.03;;;;;;;20.10;65.01;100882.88;5028141;28;20103;-73
2022/06/07 08:53:42;;;;;;;5.85;1.42;;;;;;;20.35;65.44;100879.91;5043815;28;20487;-73
2022/06/07 08:56:18;;;;;;;7.15;2.67;;;;;;;20.31;62.51;100918.63;5034938;28;20055;-74
2022/06/07 08:58:49;;;;;;;3.55;1.92;;;;;;;20.35;63.74;100891.16;5036101;28;20049;-74
2022/06/07 09:01:18;;;;;;;5.85;2.25;;;;;;;20.28;62.09;100897.84;5043651;28;20065;-75
2022/06/07 09:03:54;;;;;;;7.40;2.15;;;;;;;20.49;62.63;100885.03;5040223;28;20128;-72
2022/06/07 09:06:24;;;;;;;4.20;2.03;;;;;;;20.32;61.74;100895.69;5032042;28;20065;-73
2022/06/07 09:08:55;;;;;;;2.15;1.23;;;;;;;20.46;63.38;100893.56;5046532;28;20045;-71
2022/06/07 09:14:38;;;;;;;5.88;1.85;;;;;;;20.77;60.24;100902.78;5042327;28;20056;-72
2022/06/07 09:17:11;;;;;;;4.65;1.77;;;;;;;20.44;61.28;100891.22;5038839;28;20112;-73
2022/06/07 09:19:38;;;;;;;9.32;3.85;;;;;;;20.67;61.03;100898.34;5037429;28;20475;-72
2022/06/07 09:22:16;;;;;;;7.82;3.10;;;;;;;20.98;61.05;100887.88;5044257;28;20536;-72
2022/06/07 09:24:53;;;;;;;4.43;1.92;;;;;;;21.13;58.14;100877.63;5043142;28;20057;-72
2022/06/07 09:27:25;;;;;;;5.00;2.33;;;;;;;21.27;57.65;100880.63;5042680;28;20128;-73
2022/06/07 09:29:57;;;;;;;1.75;1.15;;;;;;;21.18;56.82;100874.97;5042438;28;20049;-72
2022/06/07 09:32:28;;;;;;;5.85;2.50;;;;;;;21.13;56.53;100881.19;5039385;28;20057;-74
2022/06/07 09:34:57;;;;;;;3.05;1.50;;;;;;;20.92;55.71;100875.66;5045293;28;20111;-75
2022/06/07 09:37:32;;;;;;;3.33;1.60;;;;;;;20.93;55.14;100880.84;5050269;28;20136;-74
2022/06/07 09:40:18;;;;;;;7.35;2.15;;;;;;;21.08;54.98;100867.75;5045482;28;20657;-72
2022/06/07 09:42:50;;;;;;;;;;;;;;;21.15;53.84;100887.16;5043829;28;20063;-74
2022/06/07 09:45:23;;;;;;;12.07;2.42;;;;;;;21.47;53.95;100872.53;5046201;28;19960;-75
2022/06/07 09:47:50;;;;;;;5.20;2.13;;;;;;;21.50;53.39;100887.69;5045058;28;20088;-72
2022/06/07 09:50:31;;;;;;;4.32;1.60;;;;;;;21.15;55.34;100875.91;5041592;28;20053;-72
2022/06/07 09:53:08;;;;;;;2.67;1.27;;;;;;;20.82;57.83;100879.69;5040639;28;20059;-72
2022/06/07 09:56:05;;;;;;;3.88;1.70;;;;;;;20.79;58.55;100875.00;5036880;28;20076;-73
2022/06/07 09:59:03;;;;;;;3.67;1.35;;;;;;;20.67;60.38;100875.88;5042383;28;20783;-72
2022/06/07 10:01:32;;;;;;;4.13;2.05;;;;;;;20.62;62.27;100879.28;5036062;28;20077;-71
2022/06/07 10:04:13;;;;;;;4.57;1.67;;;;;;;20.50;62.72;100885.78;5039793;28;20048;-74
2022/06/07 10:06:59;;;;;;;6.03;2.40;;;;;;;20.31;62.12;100880.06;5039126;28;20063;-72
2022/06/07 10:09:56;;;;;;;1.45;1.23;;;;;;;20.44;62.59;100888.41;5036192;28;20053;-74
2022/06/07 10:12:47;;;;;;;8.23;2.20;;;;;;;20.72;61.87;100880.91;5043016;28;20163;-73
2022/06/07 10:15:20;;;;;;;7.10;2.05;;;;;;;20.93;61.72;100872.41;5035548;28;20514;-73
2022/06/07 10:17:56;;;;;;;7.60;2.72;;;;;;;20.90;59.70;100872.50;5044200;28;20087;-72
2022/06/07 10:20:44;;;;;;;6.65;1.73;;;;;;;21.22;60.29;100861.53;5036394;28;20044;-73
2022/06/07 10:23:30;;;;;;;8.77;2.42;;;;;;;21.19;59.20;100881.38;5028569;28;20080;-71
2022/06/07 10:26:10;;;;;;;6.47;2.13;;;;;;;20.88;59.87;100878.59;5042497;28;20143;-73
2022/06/07 10:28:50;;;;;;;4.95;2.00;;;;;;;21.06;59.25;100863.84;5040929;28;20140;-73
2022/06/07 10:31:36;;;;;;;3.30;1.13;;;;;;;21.23;58.92;100862.31;5035354;28;20195;-72
2022/06/07 10:34:49;;;;;;;8.48;2.10;;;;;;;21.45;58.98;100858.13;5041402;28;20460;-74
2022/06/07 10:37:44;;;;;;;2.85;1.10;;;;;;;21.14;59.02;100867.91;5027724;28;20529;-70
2022/06/07 10:40:14;;;;;;;4.43;1.60;;;;;;;21.41;59.15;100867.97;5042555;28;20041;-70
2022/06/07 10:42:50;;;;;;;3.72;2.17;;;;;;;21.25;59.03;100868.25;5042859;28;20084;-71
2022/06/07 10:45:26;;;;;;;3.78;1.80;;;;;;;21.60;58.54;100869.56;5045240;28;20541;-75
2022/06/07 10:48:04;;;;;;;3.03;1.45;;;;;;;21.76;57.16;100864.41;5038380;28;20131;-72
2022/06/07 10:50:38;;;;;;;4.60;1.23;;;;;;;22.00;57.07;100862.50;5038250;28;20160;-76
2022/06/07 10:53:25;;;;;;;3.95;1.60;;;;;;;22.03;56.67;100855.94;5056367;28;20071;-73
2022/06/07 10:55:59;;;;;;;2.10;1.02;;;;;;;22.32;56.85;100849.75;5042275;28;20080;-74
2022/06/07 10:58:37;;;;;;;8.70;2.60;;;;;;;22.44;54.74;100860.03;5035637;28;20096;-76
2022/06/07 11:01:20;;;;;;;6.40;2.33;;;;;;;22.44;54.22;100846.72;5039545;28;20077;-75
2022/06/07 11:03:55;;;;;;;2.80;1.50;;;;;;;22.22;55.61;100849.00;5042939;28;20106;-76
2022/06/07 11:09:32;;;;;;;3.67;1.45;;;;;;;22.59;54.28;100852.50;5040477;28;20052;-74
2022/06/07 11:12:04;;;;;;;6.13;1.63;;;;;;;22.35;53.41;100851.63;5039606;28;20076;-72
2022/06/07 11:15:04;;;;;;;3.58;1.70;;;;;;;22.23;54.09;100861.03;5036315;28;20052;-71
2022/06/07 11:17:41;;;;;;;6.72;2.60;;;;;;;22.36;55.10;100847.53;5038822;28;20494;-72
2022/06/07 11:20:27;;;;;;;3.78;1.23;;;;;;;22.21;56.08;100846.66;5023093;28;20049;-74
2022/06/07 11:23:01;;;;;;;4.15;1.67;;;;;;;21.99;56.00;100844.03;5036403;28;20057;-72
2022/06/07 11:25:36;;;;;;;5.38;2.28;;;;;;;22.29;56.13;100850.69;5033897;28;20056;-71
2022/06/07 11:28:15;;;;;;;;;;;;;;;22.36;56.28;100839.88;5030514;28;20055;-71
2022/06/07 11:30:52;;;;;;;7.90;2.30;;;;;;;22.64;54.90;100844.16;5047268;28;20091;-73
2022/06/07 11:33:36;;;;;;;8.52;2.60;;;;;;;22.82;56.01;100848.16;5040598;28;20107;-71
2022/06/07 11:36:06;;;;;;;2.67;1.13;;;;;;;22.31;56.01;100840.50;5035457;28;20690;-74
2022/06/07 11:38:35;;;;;;;4.90;1.38;;;;;;;22.16;55.34;100845.25;5032739;28;20057;-72
2022/06/07 11:41:41;;;;;;;4.22;1.60;;;;;;;21.90;55.65;100838.41;5037369;28;20416;-71
2022/06/07 11:44:08;;;;;;;7.85;1.95;;;;;;;22.16;55.76;100839.63;5034075;28;20148;-71
2022/06/07 11:46:34;;;;;;;2.85;1.33;;;;;;;22.02;56.10;100836.69;5033693;28;20053;-72
2022/06/07 11:49:19;;;;;;;6.72;2.35;;;;;;;22.11;55.71;100839.47;5032606;28;20045;-72
2022/06/07 11:52:02;;;;;;;3.95;1.42;;;;;;;22.16;56.61;100841.66;5034247;28;20075;-70
2022/06/07 11:54:38;;;;;;;6.30;2.17;;;;;;;22.14;55.46;100832.91;5031435;28;20187;-74
2022/06/07 11:57:38;;;;;;;7.85;2.28;;;;;;;22.28;55.73;100837.88;5037217;28;20531;-72